Time;durP1;ratioP1;P1;durP2;ratioP2;P2;SDS_P1;SDS_P2;PMS_P1;PMS_P2;Temp;Humidity;BMP_temperature;BMP_pressure;BME280_temperature;BME280_humidity;BME280_pressure;Samples;Min_cycle;Max_cycle;Signal;HPM_P1;HPM_P2
2023/07/21 00:01:03;;;;;;;6.47;4.77;;;;;;;;;;6247995;28;20202;-67
2023/07/21 00:04:05;;;;;;;5.80;4.90;;;;;;;;;;6252675;28;20218;-67
2023/07/21 00:07:06;;;;;;;6.87;5.13;;;;;;;;;;6248112;28;20194;-67
2023/07/21 00:10:08;;;;;;;5.37;4.87;;;;;;;;;;6243431;28;20189;-67
2023/07/21 00:13:09;;;;;;;6.20;5.37;;;;;;;;;;6260904;28;20213;-67
2023/07/21 00:16:10;;;;;;;6.30;5.10;;;;;;;;;;6252345;28;20193;-67
2023/07/21 00:19:12;;;;;;;7.93;4.50;;;;;;;;;;6239004;28;20194;-67
2023/07/21 00:22:13;;;;;;;7.93;5.40;;;;;;;;;;6283016;28;20198;-67
2023/07/21 00:25:14;;;;;;;9.53;5.37;;;;;;;;;;6249010;28;20220;-67
2023/07/21 00:28:17;;;;;;;7.57;5.87;;;;;;;;;;6249808;28;20238;-67
2023/07/21 00:31:18;;;;;;;5.80;5.20;;;;;;;;;;6256991;28;20187;-67
2023/07/21 00:34:24;;;;;;;6.20;5.60;;;;;;;;;;6248653;28;20193;-67
2023/07/21 00:37:25;;;;;;;6.90;5.73;;;;;;;;;;6234829;28;20230;-67
2023/07/21 00:40:27;;;;;;;6.67;5.07;;;;;;;;;;6237720;28;20213;-67
2023/07/21 00:43:28;;;;;;;6.00;5.23;;;;;;;;;;6298911;28;20205;-68
2023/07/21 00:46:29;;;;;;;7.07;5.30;;;;;;;;;;6246659;28;20193;-67
2023/07/21 00:49:32;;;;;;;7.17;4.77;;;;;;;;;;6245005;28;20281;-67
2023/07/21 00:52:33;;;;;;;5.77;5.10;;;;;;;;;;6261358;28;20198;-67
2023/07/21 00:55:34;;;;;;;7.93;4.90;;;;;;;;;;6268632;28;20277;-67
2023/07/21 00:58:37;;;;;;;7.40;4.90;;;;;;;;;;6248649;28;20213;-67
2023/07/21 01:01:38;;;;;;;6.73;5.37;;;;;;;;;;6245380;28;20232;-67
2023/07/21 01:04:40;;;;;;;8.90;5.47;;;;;;;;;;6265581;28;20205;-67
2023/07/21 01:07:41;;;;;;;5.63;4.67;;;;;;;;;;6272256;28;20192;-67
2023/07/21 01:10:42;;;;;;;7.70;5.90;;;;;;;;;;6265304;28;20200;-67
2023/07/21 01:13:43;;;;;;;8.97;5.10;;;;;;;;;;6244246;28;20198;-67
2023/07/21 01:16:46;;;;;;;8.27;5.43;;;;;;;;;;6263012;28;20214;-67
2023/07/21 01:19:49;;;;;;;5.43;4.93;;;;;;;;;;6253170;28;20248;-67
2023/07/21 01:23:00;;;;;;;9.83;5.53;;;;;;;;;;6255254;28;20190;-67
2023/07/21 01:26:01;;;;;;;5.30;4.80;;;;;;;;;;6270000;28;20207;-68
2023/07/21 01:29:03;;;;;;;5.30;4.80;;;;;;;;;;6268731;28;20310;-67
2023/07/21 01:32:05;;;;;;;7.87;4.93;;;;;;;;;;6250504;28;20226;-67
2023/07/21 01:35:08;;;;;;;7.40;4.93;;;;;;;;;;6232488;28;20200;-67
2023/07/21 01:38:10;;;;;;;7.73;5.30;;;;;;;;;;6264378;28;20190;-67
2023/07/21 01:41:12;;;;;;;5.30;4.80;;;;;;;;;;6245661;28;20198;-68
2023/07/21 01:44:13;;;;;;;9.03;5.60;;;;;;;;;;6261671;28;20214;-67
2023/07/21 01:47:14;;;;;;;7.23;5.43;;;;;;;;;;6235814;28;20194;-67
2023/07/21 01:50:17;;;;;;;5.97;4.57;;;;;;;;;;6272056;28;20205;-67
2023/07/21 01:53:21;;;;;;;8.17;5.60;;;;;;;;;;6270686;28;20186;-67
2023/07/21 01:56:30;;;;;;;5.30;4.80;;;;;;;;;;6268159;28;20194;-67
2023/07/21 01:59:31;;;;;;;7.80;5.03;;;;;;;;;;6253424;28;20217;-67
2023/07/21 02:02:32;;;;;;;5.90;5.30;;;;;;;;;;6255709;28;20188;-67
2023/07/21 02:05:34;;;;;;;5.83;4.97;;;;;;;;;;6276107;28;20200;-67
2023/07/21 02:08:35;;;;;;;7.20;4.93;;;;;;;;;;6253789;28;20199;-67
2023/07/21 02:11:37;;;;;;;5.73;5.13;;;;;;;;;;6287703;28;20189;-67
2023/07/21 02:14:38;;;;;;;6.50;5.20;;;;;;;;;;6251496;28;20198;-67
2023/07/21 02:17:39;;;;;;;6.27;5.03;;;;;;;;;;6257300;28;20189;-67
2023/07/21 02:20:40;;;;;;;7.17;5.40;;;;;;;;;;6255828;28;20190;-67
2023/07/21 02:23:41;;;;;;;7.03;5.33;;;;;;;;;;6270628;28;20249;-67
2023/07/21 02:26:42;;;;;;;7.87;5.60;;;;;;;;;;6250767;28;20194;-67
2023/07/21 02:29:50;;;;;;;8.20;5.87;;;;;;;;;;6242156;28;20241;-67
2023/07/21 02:32:51;;;;;;;11.30;6.43;;;;;;;;;;6254898;28;20202;-67
2023/07/21 02:35:52;;;;;;;6.67;6.07;;;;;;;;;;6276835;28;20198;-67
2023/07/21 02:38:53;;;;;;;5.57;5.07;;;;;;;;;;6279598;28;20186;-67
2023/07/21 02:41:54;;;;;;;6.73;5.90;;;;;;;;;;6248722;28;20201;-67
2023/07/21 02:44:55;;;;;;;6.80;6.10;;;;;;;;;;6251746;28;20222;-67
2023/07/21 02:47:56;;;;;;;6.80;6.10;;;;;;;;;;6250040;28;20198;-67
2023/07/21 02:50:58;;;;;;;8.53;6.43;;;;;;;;;;6273808;28;20189;-67
2023/07/21 02:53:59;;;;;;;8.00;6.20;;;;;;;;;;6245303;28;20195;-68
2023/07/21 02:57:00;;;;;;;7.37;6.13;;;;;;;;;;6248449;28;20198;-67
2023/07/21 03:00:03;;;;;;;6.53;5.87;;;;;;;;;;6238980;28;20199;-67
2023/07/21 03:03:04;;;;;;;10.23;7.10;;;;;;;;;;6251673;28;20304;-66
2023/07/21 03:06:09;;;;;;;7.70;6.90;;;;;;;;;;6265337;28;20202;-66
2023/07/21 03:09:10;;;;;;;9.87;8.20;;;;;;;;;;6277430;28;20229;-66
2023/07/21 03:12:12;;;;;;;10.57;7.43;;;;;;;;;;6251355;28;20192;-66
2023/07/21 03:15:13;;;;;;;8.40;7.20;;;;;;;;;;6247372;28;20213;-66
2023/07/21 03:18:14;;;;;;;11.00;8.97;;;;;;;;;;6250951;28;20263;-66
2023/07/21 03:21:15;;;;;;;9.10;8.20;;;;;;;;;;6243668;28;20236;-66
2023/07/21 03:24:16;;;;;;;11.03;8.93;;;;;;;;;;6250014;28;20214;-67
2023/07/21 03:27:17;;;;;;;10.20;9.20;;;;;;;;;;6245366;28;20214;-67
2023/07/21 03:30:18;;;;;;;10.17;9.17;;;;;;;;;;6248523;28;20237;-67
2023/07/21 03:33:19;;;;;;;9.80;8.47;;;;;;;;;;6236294;28;20216;-67
2023/07/21 03:36:21;;;;;;;9.57;7.23;;;;;;;;;;6246384;28;20221;-66
2023/07/21 03:39:23;;;;;;;8.10;7.27;;;;;;;;;;6235419;28;20206;-66
2023/07/21 03:42:24;;;;;;;9.77;7.13;;;;;;;;;;6266966;28;20302;-66
2023/07/21 03:45:26;;;;;;;9.87;8.03;;;;;;;;;;6247897;28;20230;-66
2023/07/21 03:48:27;;;;;;;8.53;7.57;;;;;;;;;;6274202;28;20191;-66
2023/07/21 03:51:29;;;;;;;9.70;7.20;;;;;;;;;;6262575;28;20179;-67
2023/07/21 03:54:30;;;;;;;9.07;7.23;;;;;;;;;;6246389;28;20194;-67
2023/07/21 03:57:31;;;;;;;7.23;6.63;;;;;;;;;;6263830;28;20272;-67
2023/07/21 04:00:33;;;;;;;8.83;6.83;;;;;;;;;;6253287;28;20217;-67
2023/07/21 04:03:34;;;;;;;10.27;7.60;;;;;;;;;;6249753;28;20249;-66
2023/07/21 04:06:35;;;;;;;7.27;6.47;;;;;;;;;;6263438;28;20189;-66
2023/07/21 04:09:37;;;;;;;9.93;7.80;;;;;;;;;;6265381;28;20190;-67
2023/07/21 04:12:38;;;;;;;8.90;7.80;;;;;;;;;;6260593;28;20239;-66
2023/07/21 04:15:39;;;;;;;8.87;7.50;;;;;;;;;;6248386;28;20186;-67
2023/07/21 04:18:40;;;;;;;8.10;7.30;;;;;;;;;;6233032;28;20244;-66
2023/07/21 04:21:41;;;;;;;8.67;7.60;;;;;;;;;;6259375;28;20197;-67
2023/07/21 04:24:42;;;;;;;9.40;7.90;;;;;;;;;;6252130;28;20267;-66
2023/07/21 04:27:47;;;;;;;9.17;8.27;;;;;;;;;;6262362;28;20209;-66
2023/07/21 04:30:53;;;;;;;9.63;8.40;;;;;;;;;;6248828;28;20198;-66
2023/07/21 04:33:54;;;;;;;10.00;9.00;;;;;;;;;;6249612;28;20198;-66
2023/07/21 04:36:55;;;;;;;8.77;7.87;;;;;;;;;;6245124;28;20287;-66
2023/07/21 04:39:56;;;;;;;13.67;8.07;;;;;;;;;;6242790;28;20245;-66
2023/07/21 04:42:57;;;;;;;9.03;8.13;;;;;;;;;;6244731;28;20200;-67
2023/07/21 04:45:58;;;;;;;9.37;8.43;;;;;;;;;;6269915;28;20202;-66
2023/07/21 04:48:59;;;;;;;8.73;7.63;;;;;;;;;;6268367;28;20281;-66
2023/07/21 04:52:00;;;;;;;11.00;8.50;;;;;;;;;;6247642;28;20286;-66
2023/07/21 04:55:01;;;;;;;9.10;7.97;;;;;;;;;;6249217;28;20202;-66
2023/07/21 04:58:02;;;;;;;9.30;8.10;;;;;;;;;;6242222;28;20199;-66
2023/07/21 05:01:03;;;;;;;9.33;8.33;;;;;;;;;;6245700;28;20193;-66
2023/07/21 05:04:04;;;;;;;8.80;7.97;;;;;;;;;;6236682;28;20252;-66
2023/07/21 05:07:08;;;;;;;10.80;9.73;;;;;;;;;;6246830;28;20284;-66
2023/07/21 05:10:09;;;;;;;10.97;8.33;;;;;;;;;;6253640;28;20182;-66
2023/07/21 05:13:11;;;;;;;9.20;8.30;;;;;;;;;;6249645;28;20194;-67
2023/07/21 05:16:12;;;;;;;10.17;8.93;;;;;;;;;;6244411;28;20308;-67
2023/07/21 05:19:13;;;;;;;9.40;8.43;;;;;;;;;;6245072;28;20204;-67
2023/07/21 05:22:14;;;;;;;9.27;7.93;;;;;;;;;;6234522;28;20213;-67
2023/07/21 05:25:18;;;;;;;10.43;9.30;;;;;;;;;;6243079;28;20222;-67
2023/07/21 05:28:19;;;;;;;10.73;9.77;;;;;;;;;;6246583;28;20234;-67
2023/07/21 05:31:20;;;;;;;12.13;9.90;;;;;;;;;;6263613;28;20194;-67
2023/07/21 05:34:21;;;;;;;9.80;8.83;;;;;;;;;;6263149;28;20280;-67
2023/07/21 05:37:22;;;;;;;11.43;9.20;;;;;;;;;;6253261;28;20200;-67
2023/07/21 05:40:23;;;;;;;11.57;9.17;;;;;;;;;;6241946;28;20193;-67
2023/07/21 05:43:24;;;;;;;8.50;7.70;;;;;;;;;;6263390;28;20265;-67
2023/07/21 05:46:25;;;;;;;8.60;7.77;;;;;;;;;;6256467;28;20191;-67
2023/07/21 05:49:26;;;;;;;9.30;7.80;;;;;;;;;;6230702;28;20244;-67
2023/07/21 05:52:28;;;;;;;10.27;7.13;;;;;;;;;;6256628;28;20231;-67
2023/07/21 05:55:29;;;;;;;8.90;8.10;;;;;;;;;;6253586;28;20194;-67
2023/07/21 05:58:30;;;;;;;8.43;7.53;;;;;;;;;;6261001;28;20213;-67
2023/07/21 06:01:31;;;;;;;9.63;8.80;;;;;;;;;;6250567;28;20277;-67
2023/07/21 06:04:32;;;;;;;9.00;8.20;;;;;;;;;;6249156;28;20331;-67
2023/07/21 06:07:33;;;;;;;9.63;8.70;;;;;;;;;;6244946;28;20209;-66
2023/07/21 06:10:34;;;;;;;10.90;9.80;;;;;;;;;;6249366;28;20289;-66
2023/07/21 06:13:35;;;;;;;10.93;9.10;;;;;;;;;;6244991;28;20220;-66
2023/07/21 06:16:36;;;;;;;11.93;9.57;;;;;;;;;;6253073;28;20186;-67
2023/07/21 06:19:37;;;;;;;11.23;10.13;;;;;;;;;;6252299;28;20240;-67
2023/07/21 06:22:38;;;;;;;9.10;8.37;;;;;;;;;;6252718;28;20203;-67
2023/07/21 06:25:41;;;;;;;9.20;8.30;;;;;;;;;;6252313;28;20308;-67
2023/07/21 06:28:42;;;;;;;10.70;9.70;;;;;;;;;;6244854;28;20261;-67
2023/07/21 06:31:43;;;;;;;11.30;9.93;;;;;;;;;;6250970;28;20243;-67
2023/07/21 06:34:44;;;;;;;13.07;9.23;;;;;;;;;;6274484;28;20186;-67
2023/07/21 06:37:45;;;;;;;9.70;8.77;;;;;;;;;;6252560;28;20200;-66
2023/07/21 06:40:47;;;;;;;10.23;9.27;;;;;;;;;;6246381;28;20209;-66
2023/07/21 06:43:48;;;;;;;10.90;9.80;;;;;;;;;;6262516;28;20211;-66
2023/07/21 06:46:49;;;;;;;10.60;9.60;;;;;;;;;;6266080;28;20191;-66
2023/07/21 06:49:50;;;;;;;11.73;10.00;;;;;;;;;;6248099;28;20199;-66
2023/07/21 06:52:51;;;;;;;12.00;10.80;;;;;;;;;;6260354;28;20192;-67
2023/07/21 06:55:54;;;;;;;12.50;11.20;;;;;;;;;;6262798;28;20194;-67
2023/07/21 06:58:55;;;;;;;12.50;10.70;;;;;;;;;;6280089;28;20224;-67
2023/07/21 07:01:57;;;;;;;13.13;10.20;;;;;;;;;;6250749;28;20228;-67
2023/07/21 07:04:58;;;;;;;10.93;9.87;;;;;;;;;;6249066;28;20244;-67
2023/07/21 07:07:59;;;;;;;10.77;9.67;;;;;;;;;;6256335;28;20190;-66
2023/07/21 07:11:00;;;;;;;9.27;8.37;;;;;;;;;;6254519;28;20247;-66
2023/07/21 07:14:01;;;;;;;10.97;8.80;;;;;;;;;;6250090;28;20201;-66
2023/07/21 07:17:02;;;;;;;8.53;7.73;;;;;;;;;;6247824;28;20216;-66
2023/07/21 07:20:04;;;;;;;7.50;6.73;;;;;;;;;;6251071;28;20190;-66
2023/07/21 07:23:05;;;;;;;8.63;7.73;;;;;;;;;;6271461;28;20279;-66
2023/07/21 07:26:06;;;;;;;7.13;5.90;;;;;;;;;;6255106;28;20190;-66
2023/07/21 07:29:07;;;;;;;9.07;7.70;;;;;;;;;;6247193;28;20317;-66
2023/07/21 07:32:08;;;;;;;10.53;8.20;;;;;;;;;;6249707;28;20196;-66
2023/07/21 07:35:10;;;;;;;7.70;7.00;;;;;;;;;;6244158;28;20198;-66
2023/07/21 07:38:11;;;;;;;7.10;6.40;;;;;;;;;;6269826;28;20195;-66
2023/07/21 07:41:12;;;;;;;6.93;6.30;;;;;;;;;;6249861;28;20201;-66
2023/07/21 07:44:13;;;;;;;6.37;5.77;;;;;;;;;;6264720;28;20281;-66
2023/07/21 07:47:14;;;;;;;6.10;5.50;;;;;;;;;;6274163;28;20197;-66
2023/07/21 07:50:16;;;;;;;6.37;5.70;;;;;;;;;;6258343;28;20194;-66
2023/07/21 07:53:17;;;;;;;6.77;5.70;;;;;;;;;;6247166;28;20195;-66
2023/07/21 07:56:18;;;;;;;5.70;5.20;;;;;;;;;;6248442;28;20234;-66
2023/07/21 07:59:20;;;;;;;5.97;5.37;;;;;;;;;;6244692;28;20194;-66
2023/07/21 08:02:21;;;;;;;6.17;4.70;;;;;;;;;;6260309;28;20221;-66
2023/07/21 08:05:22;;;;;;;4.57;4.17;;;;;;;;;;6243852;28;20221;-66
2023/07/21 08:08:23;;;;;;;5.87;4.80;;;;;;;;;;6249224;28;20221;-66
2023/07/21 08:11:24;;;;;;;5.27;4.77;;;;;;;;;;6241930;28;20197;-66
2023/07/21 08:14:25;;;;;;;5.63;4.77;;;;;;;;;;6245662;28;20194;-66
2023/07/21 08:17:26;;;;;;;5.30;4.87;;;;;;;;;;6247463;28;20192;-66
2023/07/21 08:20:27;;;;;;;6.37;5.10;;;;;;;;;;6249108;28;20200;-67
2023/07/21 08:23:28;;;;;;;6.37;4.10;;;;;;;;;;6248066;28;20221;-66
2023/07/21 08:26:29;;;;;;;4.93;4.17;;;;;;;;;;6244918;28;20187;-67
2023/07/21 08:29:30;;;;;;;4.67;4.27;;;;;;;;;;6262894;28;20252;-67
2023/07/21 08:32:32;;;;;;;4.93;4.43;;;;;;;;;;6274656;28;20182;-66
2023/07/21 08:35:33;;;;;;;5.17;4.77;;;;;;;;;;6253283;28;20190;-67
2023/07/21 08:38:34;;;;;;;5.20;4.40;;;;;;;;;;6246079;28;20202;-67
2023/07/21 08:41:38;;;;;;;4.70;4.30;;;;;;;;;;6241645;28;20225;-67
2023/07/21 08:44:40;;;;;;;4.43;3.70;;;;;;;;;;6266828;28;20209;-67
2023/07/21 08:47:41;;;;;;;3.90;3.60;;;;;;;;;;6259457;28;20189;-67
2023/07/21 08:50:43;;;;;;;4.43;3.40;;;;;;;;;;6242811;28;20200;-66
2023/07/21 08:53:44;;;;;;;4.77;4.37;;;;;;;;;;6263478;28;20190;-67
2023/07/21 08:56:45;;;;;;;4.40;4.00;;;;;;;;;;6241621;28;20201;-66
2023/07/21 08:59:46;;;;;;;4.70;3.77;;;;;;;;;;6268879;28;20221;-66
2023/07/21 09:02:47;;;;;;;4.80;4.30;;;;;;;;;;6266206;28;20197;-66
2023/07/21 09:05:49;;;;;;;3.97;3.67;;;;;;;;;;6250253;28;20210;-67
2023/07/21 09:08:53;;;;;;;6.33;3.87;;;;;;;;;;6237991;28;20186;-67
2023/07/21 09:12:05;;;;;;;4.20;3.90;;;;;;;;;;6255348;28;20182;-67
2023/07/21 09:15:10;;;;;;;4.53;4.07;;;;;;;;;;6261030;28;20194;-67
2023/07/21 09:18:11;;;;;;;5.17;3.83;;;;;;;;;;6260294;28;20197;-67
2023/07/21 09:21:22;;;;;;;4.20;3.80;;;;;;;;;;6250759;28;20242;-67
2023/07/21 09:24:23;;;;;;;3.93;3.53;;;;;;;;;;6252196;28;20421;-67
2023/07/21 09:27:24;;;;;;;4.17;3.77;;;;;;;;;;6251206;28;20194;-67
2023/07/21 09:30:25;;;;;;;4.83;3.20;;;;;;;;;;6247790;28;20280;-67
2023/07/21 09:33:26;;;;;;;4.33;4.00;;;;;;;;;;6242849;28;20200;-67
2023/07/21 09:36:27;;;;;;;4.13;3.77;;;;;;;;;;6250117;28;20237;-67
2023/07/21 09:39:28;;;;;;;4.33;3.90;;;;;;;;;;6253989;28;20193;-67
2023/07/21 09:42:30;;;;;;;3.83;2.93;;;;;;;;;;6245842;28;20190;-67
2023/07/21 09:45:31;;;;;;;3.83;3.43;;;;;;;;;;6248973;28;20230;-67
2023/07/21 09:48:32;;;;;;;4.10;3.67;;;;;;;;;;6262414;28;20191;-67
2023/07/21 09:51:35;;;;;;;3.93;3.53;;;;;;;;;;6250906;28;20216;-67
2023/07/21 09:54:39;;;;;;;3.80;3.50;;;;;;;;;;6255378;28;20194;-67
2023/07/21 09:57:48;;;;;;;4.33;3.70;;;;;;;;;;6257937;28;20193;-67
2023/07/21 10:00:49;;;;;;;4.20;3.80;;;;;;;;;;6269162;28;20216;-67
2023/07/21 10:03:52;;;;;;;5.17;3.60;;;;;;;;;;6249955;28;20213;-67
2023/07/21 10:06:56;;;;;;;4.23;3.83;;;;;;;;;;6231972;28;20187;-67
2023/07/21 10:09:57;;;;;;;4.40;3.97;;;;;;;;;;6249360;28;20232;-67
2023/07/21 10:13:03;;;;;;;4.00;3.60;;;;;;;;;;6245940;28;20331;-67
2023/07/21 10:16:08;;;;;;;3.63;3.33;;;;;;;;;;6255783;28;20237;-67
2023/07/21 10:19:11;;;;;;;4.40;3.80;;;;;;;;;;6254290;28;20198;-67
2023/07/21 10:22:22;;;;;;;4.10;3.70;;;;;;;;;;6266913;28;20197;-67
2023/07/21 10:25:24;;;;;;;4.33;3.93;;;;;;;;;;6255624;28;20215;-67
2023/07/21 10:28:25;;;;;;;5.63;3.97;;;;;;;;;;6255149;28;20229;-67
2023/07/21 10:31:26;;;;;;;3.90;3.60;;;;;;;;;;6248156;28;20277;-67
2023/07/21 10:34:34;;;;;;;3.90;3.47;;;;;;;;;;6254452;28;20213;-67
2023/07/21 10:37:36;;;;;;;3.43;3.13;;;;;;;;;;6254357;28;20191;-67
2023/07/21 10:40:38;;;;;;;3.73;3.10;;;;;;;;;;6250860;28;20240;-67
2023/07/21 10:43:39;;;;;;;3.70;3.40;;;;;;;;;;6264225;28;20218;-67
2023/07/21 10:46:41;;;;;;;3.57;3.20;;;;;;;;;;6242838;28;20201;-67
2023/07/21 10:49:42;;;;;;;3.00;2.80;;;;;;;;;;6260850;28;20186;-67
2023/07/21 10:52:47;;;;;;;3.57;3.27;;;;;;;;;;6267452;28;20201;-67
2023/07/21 10:55:50;;;;;;;4.37;3.50;;;;;;;;;;6275591;28;20186;-67
2023/07/21 10:58:55;;;;;;;2.93;2.73;;;;;;;;;;6254145;28;20203;-67
2023/07/21 11:01:56;;;;;;;3.20;2.90;;;;;;;;;;6264470;28;20217;-67
2023/07/21 11:05:00;;;;;;;3.60;3.30;;;;;;;;;;6274570;28;20214;-67
2023/07/21 11:08:01;;;;;;;3.50;3.20;;;;;;;;;;6253577;28;20211;-67
2023/07/21 11:11:02;;;;;;;4.23;3.47;;;;;;;;;;6265376;28;20258;-67
2023/07/21 11:14:03;;;;;;;4.27;3.57;;;;;;;;;;6279521;28;20253;-67
2023/07/21 11:17:05;;;;;;;3.63;3.33;;;;;;;;;;6251069;28;20196;-67
2023/07/21 11:20:08;;;;;;;4.27;3.90;;;;;;;;;;6252769;28;20193;-67
2023/07/21 11:23:09;;;;;;;3.43;3.13;;;;;;;;;;6249035;28;20202;-67
2023/07/21 11:26:11;;;;;;;3.40;3.10;;;;;;;;;;6269960;28;20260;-67
2023/07/21 11:29:13;;;;;;;3.70;3.40;;;;;;;;;;6265229;28;20329;-67
2023/07/21 11:32:20;;;;;;;4.17;3.80;;;;;;;;;;6264512;28;20193;-67
2023/07/21 11:35:32;;;;;;;3.83;3.53;;;;;;;;;;6251114;28;20195;-67
2023/07/21 11:38:33;;;;;;;3.67;3.37;;;;;;;;;;6248177;28;20195;-67
2023/07/21 11:41:40;;;;;;;3.73;3.43;;;;;;;;;;6264409;28;20201;-67
2023/07/21 11:44:41;;;;;;;4.13;3.13;;;;;;;;;;6270598;28;20254;-67
2023/07/21 11:47:42;;;;;;;3.77;3.47;;;;;;;;;;6248591;28;20191;-67
2023/07/21 11:50:54;;;;;;;4.13;3.50;;;21.10;83.80;;;;;;6264485;28;20186;-67
2023/07/21 11:53:58;;;;;;;4.60;3.27;;;21.50;84.70;;;;;;6265239;28;20191;-67
2023/07/21 11:56:58;;;;;;;3.53;3.23;;;21.70;81.10;;;;;;6262205;28;20194;-67
2023/07/21 11:59:59;;;;;;;3.60;3.20;;;21.80;87.50;;;;;;6265072;28;20203;-67
2023/07/21 12:03:01;;;;;;;4.27;3.87;;;21.90;85.00;;;;;;6264268;28;20190;-67
2023/07/21 12:06:02;;;;;;;5.77;4.17;;;22.00;86.20;;;;;;6231290;28;20194;-67
2023/07/21 12:09:05;;;;;;;5.00;4.03;;;22.10;84.70;;;;;;6253762;28;20189;-67
2023/07/21 12:12:07;;;;;;;6.33;3.77;;;22.10;82.50;;;;;;6263515;28;20179;-67
2023/07/21 12:15:10;;;;;;;4.57;3.90;;;22.10;84.70;;;;;;6263223;28;20182;-67
2023/07/21 12:18:12;;;;;;;4.83;4.20;;;22.10;84.30;;;;;;6253391;28;20228;-67
2023/07/21 12:21:12;;;;;;;4.27;3.87;;;22.20;87.30;;;;;;6254173;28;20193;-67
2023/07/21 12:24:13;;;;;;;4.17;3.80;;;22.20;88.20;;;;;;6231186;28;20211;-67
2023/07/21 12:27:13;;;;;;;5.67;4.20;;;22.20;88.40;;;;;;6250531;28;20205;-67
2023/07/21 12:30:15;;;;;;;4.27;3.87;;;22.20;87.20;;;;;;6251053;28;20229;-67
2023/07/21 12:33:16;;;;;;;5.13;4.63;;;22.30;85.60;;;;;;6260393;28;20189;-67
2023/07/21 12:36:18;;;;;;;6.37;4.30;;;22.40;88.20;;;;;;6230862;28;20194;-67
2023/07/21 12:39:19;;;;;;;6.30;4.30;;;22.50;85.00;;;;;;6260643;28;20250;-67
2023/07/21 12:42:19;;;;;;;4.50;4.10;;;22.50;82.90;;;;;;6242507;28;20189;-67
2023/07/21 12:45:20;;;;;;;5.63;4.00;;;22.70;83.00;;;;;;6233032;28;20324;-67
2023/07/21 12:48:21;;;;;;;4.37;3.97;;;23.00;80.80;;;;;;6239007;28;20221;-67
2023/07/21 12:51:23;;;;;;;4.90;4.50;;;23.00;83.00;;;;;;6248309;28;20216;-67
2023/07/21 12:54:23;;;;;;;5.07;4.10;;;23.10;84.20;;;;;;6242818;28;20190;-67
2023/07/21 12:57:24;;;;;;;4.47;4.00;;;23.00;83.50;;;;;;6261781;28;20243;-67
2023/07/21 13:00:25;;;;;;;4.67;4.27;;;23.00;83.10;;;;;;6247161;28;20191;-67
2023/07/21 13:03:26;;;;;;;4.43;3.87;;;22.90;84.10;;;;;;6264276;28;20226;-67
2023/07/21 13:06:27;;;;;;;4.83;4.30;;;22.80;84.60;;;;;;6247824;28;20190;-67
2023/07/21 13:09:27;;;;;;;5.17;4.60;;;22.70;85.20;;;;;;6250157;28;20272;-67
2023/07/21 13:12:28;;;;;;;4.40;3.97;;;22.70;86.10;;;;;;6262139;28;20280;-67
2023/07/21 13:15:29;;;;;;;4.77;4.37;;;22.70;84.60;;;;;;6251051;28;20186;-67
2023/07/21 13:18:30;;;;;;;5.90;4.87;;;22.80;85.20;;;;;;6250886;28;20200;-67
2023/07/21 13:21:31;;;;;;;5.77;4.57;;;22.80;85.30;;;;;;6268033;28;20190;-67
2023/07/21 13:24:31;;;;;;;6.80;4.87;;;22.80;84.50;;;;;;6246738;28;20230;-67
2023/07/21 13:27:32;;;;;;;4.73;4.23;;;22.80;85.30;;;;;;6247139;28;20182;-67
2023/07/21 13:30:33;;;;;;;5.00;4.50;;;22.80;85.60;;;;;;6259978;28;20278;-67
2023/07/21 13:33:35;;;;;;;5.67;4.87;;;22.70;85.10;;;;;;6264470;28;20214;-67
2023/07/21 13:36:36;;;;;;;6.17;4.33;;;22.60;86.10;;;;;;6248140;28;20272;-67
2023/07/21 13:39:36;;;;;;;6.67;4.90;;;22.50;85.50;;;;;;6231145;28;20248;-67
2023/07/21 13:42:38;;;;;;;8.27;5.37;;;22.30;86.00;;;;;;6232411;28;20190;-67
2023/07/21 13:45:38;;;;;;;7.83;6.27;;;22.20;87.10;;;;;;6254855;28;20213;-67
2023/07/21 13:48:39;;;;;;;9.17;5.97;;;22.10;88.40;;;;;;6251203;28;20187;-67
2023/07/21 13:51:40;;;;;;;7.27;5.87;;;22.00;90.40;;;;;;6240893;28;20181;-67
2023/07/21 13:54:41;;;;;;;7.70;5.27;;;21.90;92.10;;;;;;6240097;28;20197;-67
2023/07/21 13:57:42;;;;;;;5.90;5.40;;;21.70;92.90;;;;;;6245484;28;20185;-67
2023/07/21 14:00:43;;;;;;;7.70;5.93;;;21.60;93.10;;;;;;6232829;28;20190;-67
2023/07/21 14:03:47;;;;;;;6.90;6.30;;;;;;;;;;6243408;28;20260;-67
2023/07/21 14:06:48;;;;;;;7.93;6.97;;;;;;;;;;6235097;28;20186;-67
2023/07/21 14:09:49;;;;;;;8.07;5.97;;;;;;;;;;6274603;28;20178;-66
2023/07/21 14:12:51;;;;;;;5.90;5.37;;;;;;;;;;6267279;28;20212;-67
2023/07/21 14:15:52;;;;;;;8.40;4.77;;;;;;;;;;6254408;28;20193;-66
2023/07/21 14:18:54;;;;;;;8.10;4.93;;;;;;;;;;6242896;28;20205;-67
2023/07/21 14:21:55;;;;;;;6.93;4.70;;;;;;;;;;6247451;28;20204;-67
2023/07/21 14:24:56;;;;;;;5.47;4.93;;;;;;;;;;6229300;28;20211;-67
2023/07/21 14:27:57;;;;;;;6.23;4.90;;;;;;;;;;6276054;28;20198;-66
2023/07/21 14:30:58;;;;;;;7.80;5.87;;;;;;;;;;6245624;28;20186;-67
2023/07/21 14:33:59;;;;;;;9.83;5.40;;;;;;;;;;6268418;28;20273;-67
2023/07/21 14:37:01;;;;;;;8.90;5.53;;;;;;;;;;6249288;28;20332;-67
2023/07/21 14:40:05;;;;;;;6.33;5.30;;;;;;;;;;6242068;28;20195;-67
2023/07/21 14:43:07;;;;;;;6.97;6.07;;;;;;;;;;6250349;28;20282;-67
2023/07/21 14:46:08;;;;;;;6.77;5.47;;;;;;;;;;6258546;28;20189;-67
2023/07/21 14:49:10;;;;;;;6.83;5.90;;;;;;;;;;6248015;28;20222;-67
2023/07/21 14:52:11;;;;;;;9.07;6.07;;;;;;;;;;6243493;28;20214;-67
2023/07/21 14:55:12;;;;;;;11.17;6.87;;;;;;;;;;6235211;28;20195;-67
2023/07/21 14:58:14;;;;;;;10.20;6.47;;;;;;;;;;6245094;28;20206;-68
2023/07/21 15:01:15;;;;;;;7.77;6.27;;;;;;;;;;6265111;28;20270;-68
2023/07/21 15:04:18;;;;;;;9.30;6.83;;;;;;;;;;6246784;28;20226;-69
2023/07/21 15:07:19;;;;;;;7.20;6.37;;;;;;;;;;6245752;28;20215;-67
2023/07/21 15:10:20;;;;;;;13.53;6.40;;;;;;;;;;6246781;28;20253;-67
2023/07/21 15:13:21;;;;;;;9.17;6.53;;;;;;;;;;6274264;28;20182;-68
2023/07/21 15:16:22;;;;;;;8.10;7.30;;;;;;;;;;6256177;28;20198;-69
2023/07/21 15:19:23;;;;;;;7.80;6.87;;;;;;;;;;6276374;28;20222;-68
2023/07/21 15:22:24;;;;;;;9.30;6.80;;;;;;;;;;6259329;28;20236;-68
2023/07/21 15:25:25;;;;;;;10.37;7.30;;;;;;;;;;6243108;28;20304;-68
2023/07/21 15:28:26;;;;;;;11.90;7.03;;;;;;;;;;6247543;28;20339;-68
2023/07/21 15:31:28;;;;;;;10.10;7.10;;;;;;;;;;6255870;28;20269;-68
2023/07/21 15:34:29;;;;;;;8.33;7.20;;;;;;;;;;6251077;28;20183;-67
2023/07/21 15:37:30;;;;;;;7.50;6.70;;;;;;;;;;6270689;28;20325;-67
2023/07/21 15:40:31;;;;;;;7.93;7.10;;;;;;;;;;6270453;28;20191;-67
2023/07/21 15:43:32;;;;;;;10.23;7.80;;;;;;;;;;6250148;28;20209;-67
2023/07/21 15:46:33;;;;;;;7.43;6.67;;;;;;;;;;6235038;28;20272;-68
2023/07/21 15:49:34;;;;;;;7.43;6.23;;;;;;;;;;6276797;28;20204;-68
2023/07/21 15:52:35;;;;;;;8.43;6.73;;;;;;;;;;6247384;28;20194;-67
2023/07/21 15:55:39;;;;;;;8.47;7.10;;;;;;;;;;6254932;28;20200;-68
2023/07/21 15:58:41;;;;;;;8.70;7.80;;;;;;;;;;6254970;28;20197;-67
2023/07/21 16:01:43;;;;;;;9.13;7.50;;;;;;;;;;6272027;28;20272;-67
2023/07/21 16:04:45;;;;;;;7.70;6.33;;;;;;;;;;6242916;28;20214;-67
2023/07/21 16:07:46;;;;;;;11.57;6.97;;;;;;;;;;6251060;28;20240;-67
2023/07/21 16:10:48;;;;;;;8.37;7.10;;;;;;;;;;6251029;28;20216;-67
2023/07/21 16:13:51;;;;;;;6.10;5.50;;;;;;;;;;6244035;28;20237;-67
2023/07/21 16:16:52;;;;;;;7.17;5.67;;;;;;;;;;6244693;28;20193;-66
2023/07/21 16:19:53;;;;;;;5.83;4.47;;;;;;;;;;6265061;28;20194;-66
2023/07/21 16:22:54;;;;;;;6.37;5.17;;;;;;;;;;6281204;28;20197;-66
2023/07/21 16:25:55;;;;;;;6.20;5.30;;;;;;;;;;6248450;28;20228;-66
2023/07/21 16:28:56;;;;;;;5.17;4.30;;;;;;;;;;6256646;28;20264;-67
2023/07/21 16:31:58;;;;;;;5.20;4.70;;;;;;;;;;6247344;28;20201;-67
2023/07/21 16:34:59;;;;;;;6.93;6.33;;;;;;;;;;6245911;28;20189;-66
2023/07/21 16:38:00;;;;;;;7.97;7.33;;;;;;;;;;6231272;28;20216;-66
2023/07/21 16:41:02;;;;;;;7.70;7.00;;;;;;;;;;6274146;28;20221;-66
2023/07/21 16:44:03;;;;;;;7.60;6.97;;;;;;;;;;6249771;28;20263;-67
2023/07/21 16:47:04;;;;;;;8.27;7.67;;;;;;;;;;6257282;28;20186;-67
2023/07/21 16:50:06;;;;;;;9.13;8.30;;;;;;;;;;6266610;28;20190;-67
2023/07/21 16:53:08;;;;;;;9.30;8.37;;;;;;;;;;6255581;28;20182;-67
2023/07/21 16:56:09;;;;;;;8.20;7.40;;;;;;;;;;6247368;28;20190;-67
2023/07/21 16:59:11;;;;;;;8.57;7.60;;;;;;;;;;6242986;28;20198;-67
2023/07/21 17:02:12;;;;;;;8.53;7.77;;;;;;;;;;6255156;28;20228;-67
2023/07/21 17:05:13;;;;;;;9.83;7.20;;;;;;;;;;6257287;28;20238;-66
2023/07/21 17:08:14;;;;;;;7.10;6.40;;;;;;;;;;6262291;28;20221;-66
2023/07/21 17:11:17;;;;;;;6.57;5.17;;;;;;;;;;6269223;28;20217;-68
2023/07/21 17:14:18;;;;;;;5.53;4.50;;;;;;;;;;6248847;28;20213;-68
2023/07/21 17:17:20;;;;;;;4.80;4.23;;;;;;;;;;6242687;28;20230;-67
2023/07/21 17:20:21;;;;;;;4.37;3.97;;;;;;;;;;6249182;28;20193;-67
2023/07/21 17:23:22;;;;;;;4.97;4.30;;;;;;;;;;6244654;28;20240;-68
2023/07/21 17:26:23;;;;;;;7.57;5.13;;;;;;;;;;6269803;28;20212;-67
2023/07/21 17:29:24;;;;;;;5.10;4.60;;;;;;;;;;6263911;28;20233;-67
2023/07/21 17:32:26;;;;;;;5.73;5.20;;;;;;;;;;6263353;28;20193;-67
2023/07/21 17:35:27;;;;;;;8.83;5.90;;;;;;;;;;6244253;28;20190;-67
2023/07/21 17:38:29;;;;;;;5.77;5.27;;;;;;;;;;6231604;28;20264;-67
2023/07/21 17:41:30;;;;;;;5.27;4.80;;;;;;;;;;6231452;28;20201;-67
2023/07/21 17:44:31;;;;;;;6.80;5.10;;;;;;;;;;6283324;28;20213;-67